Time;durP1;ratioP1;P1;durP2;ratioP2;P2;SDS_P1;SDS_P2;PMS_P1;PMS_P2;Temp;Humidity;BMP_temperature;BMP_pressure;BME280_temperature;BME280_humidity;BME280_pressure;Samples;Min_cycle;Max_cycle;Signal;HPM_P1;HPM_P2
2024/03/18 07:28:42;;;;;;;;;58.33;47.33;;;;;;;;5103103;27;13511;-68
2024/03/18 07:31:13;;;;;;;;;59.33;46.67;;;;;;;;5096255;28;8846;-65
2024/03/18 07:33:39;;;;;;;;;59.33;46.33;;;;;;;;5107038;28;9544;-68
2024/03/18 07:36:04;;;;;;;;;56.33;45.67;;;;;;;;5105445;28;8820;-68
2024/03/18 07:38:31;;;;;;;;;55.00;44.67;;;;;;;;5101868;28;8854;-69
2024/03/18 07:40:56;;;;;;;;;56.33;46.00;;;;;;;;5085032;28;8798;-68
2024/03/18 07:43:21;;;;;;;;;47.33;40.67;;;;;;;;5086355;28;8815;-72
2024/03/18 07:45:47;;;;;;;;;48.33;41.33;;;;;;;;5084697;28;9540;-68
2024/03/18 07:48:12;;;;;;;;;53.00;44.00;;;;;;;;5085562;28;8841;-70
2024/03/18 07:50:37;;;;;;;;;42.33;38.00;;;;;;;;5086074;28;8787;-68
2024/03/18 07:53:04;;;;;;;;;49.33;39.67;;;;;;;;5084363;28;8827;-68
2024/03/18 07:55:29;;;;;;;;;40.75;33.75;;;;;;;;5080234;28;8814;-74
2024/03/18 07:57:54;;;;;;;;;48.00;41.00;;;;;;;;5074398;28;11583;-72
2024/03/18 08:00:20;;;;;;;;;42.00;37.50;;;;;;;;5065724;28;8915;-75
2024/03/18 08:02:45;;;;;;;;;47.67;41.00;;;;;;;;5083718;28;8834;-73
2024/03/18 08:05:11;;;;;;;;;40.00;35.33;;;;;;;;5085937;28;8837;-76
2024/03/18 08:07:37;;;;;;;;;45.50;37.50;;;;;;;;5085722;28;8915;-75
2024/03/18 08:10:02;;;;;;;;;49.00;40.33;;;;;;;;5085914;28;8791;-75
2024/03/18 08:12:27;;;;;;;;;47.00;39.00;;;;;;;;5086034;28;8779;-75
2024/03/18 08:14:52;;;;;;;;;44.25;37.00;;;;;;;;5085707;28;8971;-76
2024/03/18 08:17:19;;;;;;;;;44.33;37.67;;;;;;;;5084568;28;8903;-76
2024/03/18 08:19:45;;;;;;;;;48.00;38.75;;;;;;;;5086010;28;9716;-78
2024/03/18 08:22:13;;;;;;;;;45.50;39.00;;;;;;;;5085601;28;11621;-78
2024/03/18 08:24:39;;;;;;;;;42.00;38.00;;;;;;;;5086154;28;8933;-79
2024/03/18 08:27:04;;;;;;;;;42.25;36.00;;;;;;;;5085504;28;11664;-77
2024/03/18 08:29:30;;;;;;;;;47.00;39.75;;;;;;;;5085651;28;8816;-73
2024/03/18 08:31:56;;;;;;;;;43.75;38.00;;;;;;;;5081971;28;8833;-74
2024/03/18 08:34:21;;;;;;;;;43.75;38.00;;;;;;;;5085235;28;8833;-73
2024/03/18 08:36:47;;;;;;;;;49.00;41.00;;;;;;;;5085605;28;8817;-75
2024/03/18 08:39:13;;;;;;;;;44.33;41.00;;;;;;;;5076806;28;8833;-73
2024/03/18 08:41:38;;;;;;;;;43.00;37.67;;;;;;;;5072183;28;8770;-76
2024/03/18 08:44:03;;;;;;;;;36.50;34.00;;;;;;;;5072197;28;8797;-71
2024/03/18 08:46:29;;;;;;;;;44.67;38.33;;;;;;;;5069960;28;8921;-72
2024/03/18 08:48:54;;;;;;;;;46.25;40.50;;;;;;;;5070658;28;8818;-72
2024/03/18 08:51:19;;;;;;;;;45.00;38.25;;;;;;;;5070739;28;8810;-70
2024/03/18 08:53:46;;;;;;;;;48.67;41.00;;;;;;;;5069968;28;8821;-71
2024/03/18 08:56:11;;;;;;;;;45.00;39.33;;;;;;;;5070047;28;8778;-74
2024/03/18 08:58:36;;;;;;;;;47.67;41.00;;;;;;;;5065700;28;11608;-68
2024/03/18 09:01:02;;;;;;;;;47.67;40.33;;;;;;;;5060788;28;8817;-70
2024/03/18 09:03:27;;;;;;;;;43.50;38.25;;;;;;;;5051891;28;8792;-69
2024/03/18 09:05:55;;;;;;;;;46.50;39.00;;;;;;;;5051428;28;8785;-68
2024/03/18 09:08:21;;;;;;;;;46.75;40.50;;;;;;;;5050796;28;8931;-66
2024/03/18 09:10:47;;;;;;;;;48.75;40.75;;;;;;;;5050970;28;11655;-65
2024/03/18 09:13:14;;;;;;;;;43.25;39.25;;;;;;;;5051130;28;11541;-67
2024/03/18 09:15:39;;;;;;;;;46.67;40.00;;;;;;;;5050742;28;8766;-68
2024/03/18 09:18:04;;;;;;;;;52.25;41.25;;;;;;;;5057647;28;11527;-68
2024/03/18 09:20:30;;;;;;;;;50.00;41.75;;;;;;;;5071053;28;8794;-68
2024/03/18 09:22:55;;;;;;;;;50.50;39.75;;;;;;;;5052974;28;8822;-71
2024/03/18 09:25:20;;;;;;;;;57.67;45.00;;;;;;;;5071203;28;8905;-68
2024/03/18 09:27:46;;;;;;;;;54.67;44.33;;;;;;;;5071050;28;8806;-68
2024/03/18 09:30:11;;;;;;;;;51.00;41.67;;;;;;;;5070669;28;8803;-68
2024/03/18 09:32:36;;;;;;;;;55.00;42.00;;;;;;;;5071416;28;8798;-68
2024/03/18 09:35:02;;;;;;;;;47.00;41.00;;;;;;;;5070885;28;8920;-71
2024/03/18 09:37:28;;;;;;;;;45.25;39.25;;;;;;;;5071058;28;9592;-69
2024/03/18 09:39:54;;;;;;;;;50.75;40.50;;;;;;;;5070913;28;8795;-69
2024/03/18 09:42:19;;;;;;;;;47.67;40.33;;;;;;;;5071130;28;11543;-70
2024/03/18 09:44:45;;;;;;;;;52.25;42.50;;;;;;;;5070956;28;8859;-70
2024/03/18 09:47:20;;;;;;;;;50.25;41.50;;;;;;;;5070850;28;8806;-70
2024/03/18 09:49:46;;;;;;;;;54.33;42.00;;;;;;;;5066917;28;8892;-70
2024/03/18 09:52:13;;;;;;;;;50.75;42.00;;;;;;;;5068257;28;11551;-67
2024/03/18 09:54:38;;;;;;;;;48.25;39.50;;;;;;;;5070572;28;8868;-67
2024/03/18 09:57:07;;;;;;;;;47.25;38.50;;;;;;;;5070476;28;11522;-68
2024/03/18 09:59:33;;;;;;;;;52.00;41.75;;;;;;;;5070338;28;8833;-67
2024/03/18 10:01:58;;;;;;;;;52.25;40.00;;;;;;;;5070201;28;11623;-67
2024/03/18 10:04:23;;;;;;;;;39.25;35.00;;;;;;;;5069985;28;8812;-67
2024/03/18 10:06:51;;;;;;;;;50.25;43.25;;;;;;;;5070508;28;8941;-67
2024/03/18 10:09:19;;;;;;;;;52.50;42.75;;;;;;;;5068963;28;8860;-67
2024/03/18 10:11:44;;;;;;;;;52.00;41.75;;;;;;;;5070438;28;11488;-68
2024/03/18 10:14:10;;;;;;;;;52.00;42.50;;;;;;;;5070116;28;11502;-68
2024/03/18 10:16:35;;;;;;;;;49.75;42.50;;;;;;;;5069015;28;8802;-67
2024/03/18 10:19:01;;;;;;;;;54.75;44.00;;;;;;;;5070021;28;8893;-68
2024/03/18 10:21:27;;;;;;;;;52.67;44.33;;;;;;;;5068519;28;8929;-67
2024/03/18 10:23:55;;;;;;;;;54.75;45.00;;;;;;;;5069952;28;8802;-68
2024/03/18 10:26:21;;;;;;;;;54.25;41.50;;;;;;;;5069817;28;8908;-68
2024/03/18 10:28:46;;;;;;;;;51.50;41.75;;;;;;;;5070019;28;11662;-68
2024/03/18 10:31:16;;;;;;;;;51.50;41.75;;;;;;;;5069793;28;8817;-67
2024/03/18 10:33:46;;;;;;;;;53.00;45.00;;;;;;;;5069819;28;8775;-67
2024/03/18 10:36:23;;;;;;;;;47.75;41.00;;;;;;;;5069341;28;11462;-69
2024/03/18 10:38:55;;;;;;;;;54.50;45.25;;;;;;;;5068809;28;12354;-73
2024/03/18 10:41:20;;;;;;;;;55.25;45.00;;;;;;;;5070159;28;11643;-75
2024/03/18 10:43:50;;;;;;;;;71.33;55.00;;;;;;;;5068837;28;12387;-67
2024/03/18 10:46:16;;;;;;;;;60.75;48.50;;;;;;;;5069598;28;9644;-68
2024/03/18 10:48:42;;;;;;;;;44.50;40.00;;;;;;;;5069253;28;11553;-67
2024/03/18 10:51:11;;;;;;;;;44.00;38.00;;;;;;;;5069188;28;8823;-67
2024/03/18 10:53:37;;;;;;;;;44.75;40.00;;;;;;;;5069530;28;8895;-65
2024/03/18 10:56:02;;;;;;;;;42.50;39.50;;;;;;;;5068200;28;11683;-65
2024/03/18 10:58:29;;;;;;;;;39.50;39.00;;;;;;;;5069985;28;8945;-76
2024/03/18 11:00:55;;;;;;;;;45.75;40.00;;;;;;;;5068275;28;8821;-71
2024/03/18 11:03:28;;;;;;;;;46.25;42.75;;;;;;;;5069612;28;11522;-71
2024/03/18 11:05:57;;;;;;;;;47.25;40.00;;;;;;;;5067675;28;8799;-73
2024/03/18 11:08:24;;;;;;;;;42.25;40.25;;;;;;;;5069089;28;11571;-73
2024/03/18 11:10:51;;;;;;;;;44.50;37.25;;;;;;;;5067959;28;11531;-72
2024/03/18 11:13:20;;;;;;;;;41.75;39.00;;;;;;;;5069576;28;11505;-70
2024/03/18 11:15:55;;;;;;;;;47.75;41.75;;;;;;;;5067762;28;11669;-70
2024/03/18 11:18:22;;;;;;;;;51.25;44.50;;;;;;;;5067827;28;12743;-73
2024/03/18 11:20:51;;;;;;;;;44.75;40.25;;;;;;;;5068788;28;11656;-74
2024/03/18 11:23:16;;;;;;;;;56.25;45.00;;;;;;;;5069418;28;11575;-71
2024/03/18 11:25:41;;;;;;;;;58.00;46.75;;;;;;;;5067084;28;11569;-71
2024/03/18 11:28:07;;;;;;;;;53.00;42.50;;;;;;;;5068236;28;8826;-70
2024/03/18 11:30:34;;;;;;;;;43.75;38.50;;;;;;;;5068295;28;8845;-70
2024/03/18 11:33:08;;;;;;;;;50.00;43.50;;;;;;;;5068800;28;8779;-70
2024/03/18 11:35:34;;;;;;;;;55.50;45.75;;;;;;;;5063826;28;11552;-77
2024/03/18 11:37:59;;;;;;;;;58.00;45.25;;;;;;;;5068642;28;11730;-77
2024/03/18 11:40:24;;;;;;;;;56.50;44.50;;;;;;;;5067704;28;11549;-76
2024/03/18 11:42:50;;;;;;;;;51.00;44.25;;;;;;;;5066708;28;8763;-76
2024/03/18 11:45:16;;;;;;;;;58.00;45.50;;;;;;;;5068964;28;8794;-79
2024/03/18 11:47:41;;;;;;;;;56.50;46.75;;;;;;;;5070362;28;8833;-78
2024/03/18 11:50:07;;;;;;;;;55.25;45.50;;;;;;;;5059142;28;11511;-80
2024/03/18 11:52:33;;;;;;;;;55.75;43.75;;;;;;;;5069466;28;8783;-79
2024/03/18 11:54:58;;;;;;;;;56.25;47.00;;;;;;;;5068314;28;8791;-79
2024/03/18 11:57:23;;;;;;;;;50.75;43.00;;;;;;;;5068660;28;8807;-79
2024/03/18 11:59:49;;;;;;;;;56.33;46.00;;;;;;;;5068923;28;8817;-79
2024/03/18 12:02:15;;;;;;;;;54.50;44.50;;;;;;;;5068905;28;8775;-79
2024/03/18 12:04:40;;;;;;;;;52.75;43.75;;;;;;;;5068749;28;8783;-77
2024/03/18 12:07:07;;;;;;;;;52.75;42.50;;;;;;;;5068858;28;8830;-78
2024/03/18 12:09:34;;;;;;;;;58.25;44.00;;;;;;;;5068840;28;9496;-77
2024/03/18 12:12:00;;;;;;;;;56.00;44.25;;;;;;;;5068367;28;11553;-69
2024/03/18 12:14:25;;;;;;;;;54.25;44.25;;;;;;;;5070421;28;12423;-67
2024/03/18 12:16:52;;;;;;;;;57.50;45.25;;;;;;;;5072350;28;11532;-68
2024/03/18 12:19:17;;;;;;;;;57.25;47.00;;;;;;;;5072273;28;8891;-67
2024/03/18 12:21:42;;;;;;;;;54.75;45.00;;;;;;;;5072027;28;11517;-68
2024/03/18 12:29:43;;;;;;;;;53.00;42.50;;;;;;;;5055866;28;12245;-72
2024/03/18 12:32:12;;;;;;;;;52.50;44.25;;;;;;;;5072018;28;11592;-76
2024/03/18 12:34:37;;;;;;;;;54.00;45.00;;;;;;;;5072462;28;8881;-76
2024/03/18 12:37:03;;;;;;;;;49.50;42.75;;;;;;;;5072947;28;11661;-76
2024/03/18 12:39:28;;;;;;;;;52.25;44.00;;;;;;;;5073122;28;8829;-76
2024/03/18 12:41:59;;;;;;;;;52.25;43.25;;;;;;;;5072377;28;8791;-76
2024/03/18 12:44:25;;;;;;;;;54.00;44.50;;;;;;;;5072609;28;8847;-74
2024/03/18 12:46:50;;;;;;;;;48.50;41.25;;;;;;;;5072208;28;11522;-75
2024/03/18 12:49:15;;;;;;;;;55.25;43.50;;;;;;;;5072164;28;8755;-73
2024/03/18 12:51:40;;;;;;;;;48.00;41.50;;;;;;;;5070419;28;9622;-73
2024/03/18 12:54:08;;;;;;;;;48.25;41.50;;;;;;;;5071827;28;8791;-73
2024/03/18 12:56:34;;;;;;;;;45.25;37.75;;;;;;;;5072041;28;8774;-74
2024/03/18 12:58:59;;;;;;;;;45.25;38.25;;;;;;;;5071842;28;11582;-74
2024/03/18 13:01:24;;;;;;;;;48.25;40.50;;;;;;;;5071901;28;9496;-74
2024/03/18 13:03:51;;;;;;;;;46.50;41.00;;;;;;;;5071076;28;8859;-74
2024/03/18 13:06:18;;;;;;;;;39.75;36.25;;;;;;;;5070051;28;8798;-75
2024/03/18 13:08:43;;;;;;;;;39.75;37.25;;;;;;;;5069918;28;11543;-74
2024/03/18 13:11:13;;;;;;;;;44.75;34.50;;;;;;;;5071321;28;11549;-75
2024/03/18 13:13:43;;;;;;;;;32.75;31.00;;;;;;;;5071090;28;8795;-76
2024/03/18 13:16:09;;;;;;;;;35.25;31.75;;;;;;;;5070874;28;11566;-77
2024/03/18 13:18:35;;;;;;;;;35.00;31.25;;;;;;;;5071387;28;11014;-75
2024/03/18 13:21:01;;;;;;;;;40.75;36.00;;;;;;;;5065128;28;11507;-75
2024/03/18 13:23:32;;;;;;;;;40.25;34.25;;;;;;;;5057182;28;9503;-76
2024/03/18 13:25:59;;;;;;;;;35.75;32.00;;;;;;;;5051301;28;8816;-75
2024/03/18 13:28:24;;;;;;;;;34.00;32.75;;;;;;;;5051099;28;11627;-73
2024/03/18 13:30:49;;;;;;;;;33.50;30.50;;;;;;;;5050900;28;11523;-73
2024/03/18 13:33:15;;;;;;;;;34.75;31.00;;;;;;;;5050785;28;8781;-74
2024/03/18 13:35:42;;;;;;;;;35.25;33.25;;;;;;;;5052030;28;8812;-70
2024/03/18 13:38:13;;;;;;;;;35.75;34.00;;;;;;;;5070434;28;12194;-74
2024/03/18 13:40:42;;;;;;;;;38.00;33.00;;;;;;;;5070970;28;12083;-73
2024/03/18 13:43:13;;;;;;;;;35.00;34.50;;;;;;;;5068509;28;11540;-73
2024/03/18 13:45:38;;;;;;;;;38.25;35.25;;;;;;;;5070842;28;11528;-75
2024/03/18 13:48:04;;;;;;;;;33.75;31.50;;;;;;;;5070086;28;11539;-74
2024/03/18 13:50:31;;;;;;;;;25.00;23.00;;;;;;;;5069560;28;8814;-75
2024/03/18 13:52:56;;;;;;;;;25.75;25.00;;;;;;;;5070545;28;8779;-74
2024/03/18 13:55:24;;;;;;;;;36.25;30.75;;;;;;;;5070360;28;11547;-73
2024/03/18 13:57:50;;;;;;;;;38.00;32.25;;;;;;;;5070303;28;8833;-74
2024/03/18 14:00:19;;;;;;;;;33.25;31.00;;;;;;;;5070347;28;11496;-74
2024/03/18 14:02:48;;;;;;;;;30.50;27.25;;;;;;;;5070028;28;8904;-76
2024/03/18 14:05:14;;;;;;;;;28.25;26.50;;;;;;;;5070001;28;12412;-75
2024/03/18 14:07:39;;;;;;;;;31.25;29.25;;;;;;;;5070063;28;11653;-75
2024/03/18 14:10:05;;;;;;;;;25.25;21.50;;;;;;;;5070194;28;8801;-74
2024/03/18 14:12:30;;;;;;;;;35.00;27.50;;;;;;;;5070267;28;8803;-72
2024/03/18 14:14:55;;;;;;;;;33.75;26.75;;;;;;;;5069860;28;8779;-74
2024/03/18 14:17:21;;;;;;;;;28.00;25.50;;;;;;;;5029533;28;11269;-65
2024/03/18 14:19:46;;;;;;;;;27.25;25.00;;;;;;;;5029129;28;8817;-70
2024/03/18 14:22:11;;;;;;;;;28.50;27.25;;;;;;;;5030132;28;8802;-71
2024/03/18 14:24:43;;;;;;;;;26.00;25.75;;;;;;;;5029814;28;8817;-77
2024/03/18 14:27:09;;;;;;;;;25.25;23.75;;;;;;;;5030106;28;8821;-70
2024/03/18 14:29:34;;;;;;;;;27.50;25.75;;;;;;;;5028892;28;11640;-70
2024/03/18 14:32:03;;;;;;;;;27.75;26.25;;;;;;;;5030081;28;9507;-69
2024/03/18 14:34:29;;;;;;;;;26.75;24.50;;;;;;;;5029892;28;8802;-68
2024/03/18 14:36:56;;;;;;;;;29.25;28.00;;;;;;;;5029577;28;11544;-71
2024/03/18 14:39:22;;;;;;;;;27.75;26.50;;;;;;;;5030083;28;8781;-72
2024/03/18 14:41:48;;;;;;;;;25.50;24.75;;;;;;;;5029837;28;11674;-71
2024/03/18 14:44:13;;;;;;;;;24.50;21.75;;;;;;;;5029677;28;11540;-72
2024/03/18 14:46:38;;;;;;;;;29.25;25.50;;;;;;;;5029728;28;8805;-72
2024/03/18 14:49:03;;;;;;;;;30.75;26.00;;;;;;;;5029822;28;8825;-72
2024/03/18 14:51:29;;;;;;;;;26.00;25.00;;;;;;;;5029847;28;8809;-70
2024/03/18 14:53:54;;;;;;;;;25.00;24.75;;;;;;;;5022730;28;8916;-69
2024/03/18 14:56:20;;;;;;;;;27.50;24.75;;;;;;;;5029497;28;8798;-70
2024/03/18 14:58:45;;;;;;;;;29.50;27.25;;;;;;;;5029970;28;8798;-67
2024/03/18 15:01:14;;;;;;;;;31.75;30.00;;;;;;;;5028881;28;8797;-70
2024/03/18 15:03:39;;;;;;;;;55.50;45.00;;;;;;;;5028417;28;8778;-66
2024/03/18 15:06:04;;;;;;;;;55.75;45.00;;;;;;;;5029294;28;11662;-66
2024/03/18 15:08:30;;;;;;;;;50.75;44.00;;;;;;;;5027531;28;9570;-66
2024/03/18 15:10:57;;;;;;;;;35.25;30.75;;;;;;;;5028662;28;8773;-66
2024/03/18 15:13:40;;;;;;;;;30.00;25.75;;;;;;;;5028796;28;8840;-66
2024/03/18 15:16:06;;;;;;;;;32.75;26.50;;;;;;;;5028573;28;11513;-65
2024/03/18 15:18:31;;;;;;;;;25.75;23.75;;;;;;;;5028590;28;11550;-65
2024/03/18 15:20:56;;;;;;;;;25.75;21.50;;;;;;;;5028978;28;8762;-66
2024/03/18 15:23:27;;;;;;;;;22.75;18.50;;;;;;;;5029266;28;8809;-65
2024/03/18 15:28:36;;;;;;;;;25.50;25.50;;;;;;;;5029252;28;11537;-64
2024/03/18 15:31:01;;;;;;;;;26.00;22.00;;;;;;;;5027420;28;11589;-66
2024/03/18 15:33:27;;;;;;;;;31.50;22.75;;;;;;;;5028515;28;8825;-66
2024/03/18 15:35:52;;;;;;;;;28.50;24.25;;;;;;;;5023938;28;8844;-69
2024/03/18 15:38:17;;;;;;;;;23.00;22.25;;;;;;;;5023809;28;8817;-71
2024/03/18 15:40:42;;;;;;;;;27.00;23.50;;;;;;;;5020656;28;10009;-70
2024/03/18 15:43:08;;;;;;;;;28.00;22.25;;;;;;;;5028546;28;9590;-69
2024/03/18 15:45:33;;;;;;;;;26.75;23.75;;;;;;;;5029515;28;8786;-65
2024/03/18 15:47:59;;;;;;;;;26.00;20.25;;;;;;;;5028711;28;8907;-66
2024/03/18 15:50:24;;;;;;;;;24.00;21.25;;;;;;;;5031570;28;8798;-70
2024/03/18 15:52:50;;;;;;;;;21.00;17.50;;;;;;;;5031553;28;8825;-67
2024/03/18 15:55:16;;;;;;;;;11.00;8.50;;;;;;;;5033300;28;8809;-69
2024/03/18 15:57:41;;;;;;;;;21.50;19.50;;;;;;;;5032627;28;11505;-68
2024/03/18 16:00:15;;;;;;;;;22.00;20.00;;;;;;;;5032537;28;8814;-69
2024/03/18 16:02:42;;;;;;;;;24.75;22.00;;;;;;;;5031120;28;8814;-69
2024/03/18 16:05:07;;;;;;;;;24.75;20.75;;;;;;;;5033039;28;11616;-68
2024/03/18 16:07:33;;;;;;;;;21.75;20.25;;;;;;;;5031653;28;11679;-71
2024/03/18 16:09:58;;;;;;;;;22.50;19.75;;;;;;;;5033168;28;8835;-72
2024/03/18 16:12:25;;;;;;;;;21.00;16.75;;;;;;;;5031423;28;8840;-69
2024/03/18 16:14:51;;;;;;;;;22.25;18.00;;;;;;;;5033076;28;8851;-71
2024/03/18 16:17:16;;;;;;;;;18.25;16.75;;;;;;;;5032575;28;11527;-71
2024/03/18 16:19:41;;;;;;;;;20.75;20.50;;;;;;;;5032911;28;8793;-69
2024/03/18 16:22:06;;;;;;;;;15.50;15.50;;;;;;;;5031080;28;8794;-70
2024/03/18 16:24:32;;;;;;;;;19.75;19.75;;;;;;;;5043513;22;8814;-70
2024/03/18 16:26:57;;;;;;;;;17.25;16.00;;;;;;;;5031049;28;8838;-70
2024/03/18 16:29:23;;;;;;;;;18.75;18.75;;;;;;;;5031460;28;8829;-69
2024/03/18 16:31:49;;;;;;;;;18.50;17.25;;;;;;;;5029041;28;9667;-70
2024/03/18 16:34:14;;;;;;;;;16.75;16.75;;;;;;;;5031033;28;8924;-71
2024/03/18 16:36:40;;;;;;;;;20.50;18.25;;;;;;;;5031219;28;11451;-71
2024/03/18 16:39:05;;;;;;;;;21.25;21.25;;;;;;;;5030396;28;8793;-71
2024/03/18 16:41:31;;;;;;;;;23.50;20.00;;;;;;;;5028599;28;8801;-72
2024/03/18 16:43:56;;;;;;;;;22.25;21.25;;;;;;;;5031481;28;8844;-71
2024/03/18 16:46:21;;;;;;;;;25.00;21.50;;;;;;;;5032483;28;8778;-71
2024/03/18 16:48:46;;;;;;;;;28.00;22.75;;;;;;;;5032116;28;9555;-72
2024/03/18 16:51:12;;;;;;;;;23.50;22.50;;;;;;;;5030675;28;8893;-71
2024/03/18 16:53:37;;;;;;;;;21.50;19.75;;;;;;;;5032202;28;9000;-70
2024/03/18 16:56:02;;;;;;;;;24.75;22.25;;;;;;;;5009035;28;8990;-69
2024/03/18 16:58:30;;;;;;;;;19.00;16.75;;;;;;;;5023568;28;8824;-69
2024/03/18 17:00:56;;;;;;;;;20.75;20.75;;;;;;;;5027401;28;8929;-70
2024/03/18 17:03:21;;;;;;;;;29.75;23.50;;;;;;;;5026152;28;11564;-68
2024/03/18 17:05:47;;;;;;;;;24.00;22.25;;;;;;;;5024985;28;11634;-68
2024/03/18 17:08:12;;;;;;;;;24.50;23.25;;;;;;;;5021840;28;8834;-69
2024/03/18 17:10:38;;;;;;;;;21.00;20.25;;;;;;;;5023760;28;8794;-70
2024/03/18 17:13:03;;;;;;;;;22.25;21.00;;;;;;;;5025128;28;8878;-68
2024/03/18 17:15:28;;;;;;;;;27.00;24.25;;;;;;;;5024854;28;8785;-67
2024/03/18 17:17:53;;;;;;;;;24.00;21.50;;;;;;;;5024126;28;8817;-64
2024/03/18 17:20:20;;;;;;;;;26.00;19.00;;;;;;;;5025520;28;8774;-62
2024/03/18 17:22:46;;;;;;;;;21.50;19.25;;;;;;;;5030201;28;11527;-64
2024/03/18 17:25:11;;;;;;;;;22.00;19.50;;;;;;;;5024915;28;9535;-65
2024/03/18 17:27:39;;;;;;;;;19.50;17.50;;;;;;;;5031739;28;11534;-64
2024/03/18 17:30:06;;;;;;;;;19.75;19.00;;;;;;;;5021783;28;8784;-65
2024/03/18 17:32:31;;;;;;;;;18.75;16.25;;;;;;;;5027497;28;11494;-65
2024/03/18 17:34:57;;;;;;;;;19.75;17.75;;;;;;;;5021538;28;11569;-63
2024/03/18 17:37:22;;;;;;;;;16.75;16.75;;;;;;;;5025636;28;8826;-69
2024/03/18 17:39:50;;;;;;;;;16.00;16.00;;;;;;;;5022344;28;8816;-62
2024/03/18 17:42:16;;;;;;;;;15.00;15.00;;;;;;;;5023241;28;8788;-63
2024/03/18 17:44:41;;;;;;;;;18.75;16.50;;;;;;;;5024629;28;11457;-65
2024/03/18 17:47:06;;;;;;;;;20.50;18.50;;;;;;;;5025780;28;8962;-71
2024/03/18 17:49:31;;;;;;;;;23.75;16.00;;;;;;;;5027719;28;8789;-81
2024/03/18 17:51:57;;;;;;;;;19.25;18.25;;;;;;;;5027202;28;8847;-81
2024/03/18 17:54:22;;;;;;;;;19.75;18.50;;;;;;;;5024416;28;8817;-81
2024/03/18 17:56:47;;;;;;;;;20.00;20.00;;;;;;;;5019460;28;8810;-80
2024/03/18 17:59:13;;;;;;;;;18.75;18.00;;;;;;;;5022419;28;8811;-81
2024/03/18 18:01:42;;;;;;;;;17.25;17.25;;;;;;;;5025045;28;8805;-81
2024/03/18 18:04:07;;;;;;;;;20.25;17.25;;;;;;;;5002892;28;8780;-77
2024/03/18 18:06:33;;;;;;;;;18.00;18.00;;;;;;;;5029725;28;11495;-80
2024/03/18 18:08:59;;;;;;;;;21.00;19.50;;;;;;;;5020688;28;8899;-78
2024/03/18 18:11:24;;;;;;;;;21.25;20.00;;;;;;;;5021167;28;8944;-76
2024/03/18 18:13:51;;;;;;;;;23.75;23.75;;;;;;;;5024966;28;12161;-79
2024/03/18 18:16:16;;;;;;;;;26.50;24.50;;;;;;;;5023121;28;8801;-75
2024/03/18 18:18:45;;;;;;;;;31.50;29.50;;;;;;;;5028287;28;11481;-77
2024/03/18 18:21:11;;;;;;;;;38.00;34.25;;;;;;;;5014412;28;8798;-71
2024/03/18 18:23:36;;;;;;;;;30.75;29.25;;;;;;;;5023927;28;11473;-71
2024/03/18 18:26:01;;;;;;;;;36.50;31.00;;;;;;;;5030199;28;11458;-71
2024/03/18 18:28:27;;;;;;;;;34.75;29.50;;;;;;;;5028214;28;8845;-68
2024/03/18 18:30:52;;;;;;;;;32.50;29.25;;;;;;;;5021053;28;8895;-68
2024/03/18 18:33:17;;;;;;;;;27.00;25.75;;;;;;;;5022899;28;8778;-73
2024/03/18 18:35:42;;;;;;;;;26.25;23.25;;;;;;;;5020997;28;8808;-73
2024/03/18 18:38:08;;;;;;;;;24.50;23.25;;;;;;;;5023035;28;8790;-74
2024/03/18 18:40:34;;;;;;;;;25.00;23.00;;;;;;;;5026422;28;8800;-73
2024/03/18 18:42:59;;;;;;;;;21.75;21.25;;;;;;;;5019981;28;8776;-73
2024/03/18 18:45:24;;;;;;;;;25.50;25.00;;;;;;;;5024896;28;8867;-71
2024/03/18 18:47:49;;;;;;;;;30.00;27.50;;;;;;;;5029531;28;9673;-74
2024/03/18 18:50:15;;;;;;;;;27.50;26.00;;;;;;;;5029481;28;9575;-71
2024/03/18 18:52:40;;;;;;;;;25.25;24.00;;;;;;;;5011790;28;8917;-71
2024/03/18 18:55:07;;;;;;;;;25.75;24.75;;;;;;;;5024120;28;8774;-70
2024/03/18 18:57:32;;;;;;;;;26.25;24.75;;;;;;;;5026862;28;8804;-70
2024/03/18 18:59:58;;;;;;;;;27.50;25.25;;;;;;;;5027084;28;11436;-69
2024/03/18 19:02:24;;;;;;;;;29.25;28.25;;;;;;;;5026083;28;8854;-69
2024/03/18 19:04:49;;;;;;;;;28.75;25.75;;;;;;;;5027822;28;9799;-71
2024/03/18 19:07:15;;;;;;;;;25.50;24.00;;;;;;;;5018068;28;8824;-69
2024/03/18 19:09:41;;;;;;;;;29.25;27.75;;;;;;;;5022330;28;9516;-70
2024/03/18 19:12:06;;;;;;;;;33.25;28.75;;;;;;;;5025651;28;8790;-71
2024/03/18 19:14:31;;;;;;;;;31.25;27.75;;;;;;;;5019114;28;8828;-73
2024/03/18 19:16:57;;;;;;;;;37.50;33.25;;;;;;;;5028858;28;8794;-72
2024/03/18 19:19:22;;;;;;;;;31.25;29.75;;;;;;;;5028851;28;8755;-72
2024/03/18 19:21:47;;;;;;;;;33.75;31.50;;;;;;;;5019577;28;8812;-74
2024/03/18 19:24:12;;;;;;;;;31.75;31.75;;;;;;;;5018305;28;8837;-76
2024/03/18 19:26:38;;;;;;;;;38.75;32.75;;;;;;;;5012386;28;8844;-76
2024/03/18 19:29:03;;;;;;;;;32.50;31.25;;;;;;;;5026947;28;8826;-72
2024/03/18 19:31:29;;;;;;;;;31.75;29.25;;;;;;;;5027547;28;8941;-73
2024/03/18 19:33:54;;;;;;;;;38.00;34.25;;;;;;;;5018626;28;8806;-73
2024/03/18 19:36:19;;;;;;;;;35.75;32.25;;;;;;;;5023269;28;8928;-73
2024/03/18 19:38:45;;;;;;;;;36.50;30.75;;;;;;;;5017742;28;8846;-74
2024/03/18 19:41:10;;;;;;;;;36.50;33.75;;;;;;;;5024798;28;8864;-73
2024/03/18 19:43:35;;;;;;;;;35.75;34.00;;;;;;;;5020244;28;8788;-74
2024/03/18 19:46:01;;;;;;;;;35.50;34.00;;;;;;;;5023654;28;8869;-72
2024/03/18 19:48:26;;;;;;;;;32.75;30.75;;;;;;;;5025986;28;8814;-72
2024/03/18 19:50:53;;;;;;;;;34.75;30.75;;;;;;;;5022224;28;8794;-72
2024/03/18 19:53:18;;;;;;;;;33.00;28.50;;;;;;;;5018575;28;8810;-72
2024/03/18 19:55:44;;;;;;;;;34.25;33.00;;;;;;;;5022635;28;11481;-72
2024/03/18 19:58:09;;;;;;;;;36.25;33.25;;;;;;;;5021432;28;8791;-70
2024/03/18 20:00:35;;;;;;;;;30.25;30.00;;;;;;;;5017266;28;8915;-72
2024/03/18 20:03:00;;;;;;;;;36.00;33.25;;;;;;;;5021084;28;8786;-71
2024/03/18 20:05:27;;;;;;;;;42.00;34.75;;;;;;;;5019765;28;9656;-69
2024/03/18 20:07:52;;;;;;;;;39.50;34.25;;;;;;;;5002502;28;8830;-67
2024/03/18 20:10:17;;;;;;;;;36.25;33.00;;;;;;;;5020857;28;11479;-71
2024/03/18 20:12:44;;;;;;;;;38.50;36.25;;;;;;;;5005489;28;8940;-71
2024/03/18 20:15:13;;;;;;;;;40.25;35.50;;;;;;;;5025683;28;8896;-70
2024/03/18 20:17:38;;;;;;;;;39.00;35.25;;;;;;;;5028529;28;11464;-72
2024/03/18 20:20:10;;;;;;;;;36.50;34.50;;;;;;;;5010752;28;11459;-73
2024/03/18 20:22:40;;;;;;;;;40.25;36.00;;;;;;;;5028144;28;8848;-73
2024/03/18 20:25:07;;;;;;;;;40.25;36.50;;;;;;;;5024670;28;11467;-78
2024/03/18 20:27:32;;;;;;;;;37.25;34.00;;;;;;;;5022386;28;11486;-74
2024/03/18 20:29:57;;;;;;;;;41.25;36.25;;;;;;;;5022902;28;11453;-74
2024/03/18 20:32:22;;;;;;;;;43.50;37.25;;;;;;;;5028399;28;8798;-76
2024/03/18 20:34:48;;;;;;;;;44.00;37.00;;;;;;;;5025696;28;8774;-77
2024/03/18 20:37:13;;;;;;;;;47.50;39.00;;;;;;;;5026671;28;8825;-76
2024/03/18 20:39:38;;;;;;;;;44.75;38.75;;;;;;;;5002352;28;8801;-74
2024/03/18 20:42:04;;;;;;;;;43.00;37.00;;;;;;;;5024070;28;8792;-71
2024/03/18 20:44:29;;;;;;;;;46.50;39.50;;;;;;;;5006124;28;8852;-75
2024/03/18 20:46:54;;;;;;;;;45.75;40.00;;;;;;;;5020458;28;8854;-73
2024/03/18 20:49:20;;;;;;;;;47.25;40.25;;;;;;;;5031800;28;8836;-73
2024/03/18 20:51:45;;;;;;;;;46.75;39.25;;;;;;;;5014398;28;8793;-71
2024/03/18 20:54:10;;;;;;;;;46.25;39.75;;;;;;;;5028935;28;8802;-73
2024/03/18 20:56:36;;;;;;;;;50.50;40.25;;;;;;;;5030139;28;8817;-73
2024/03/18 20:59:02;;;;;;;;;48.25;38.00;;;;;;;;5013923;28;8813;-72
2024/03/18 21:01:27;;;;;;;;;57.33;46.33;;;;;;;;5031503;28;11478;-72
2024/03/18 21:03:52;;;;;;;;;56.00;46.25;;;;;;;;5031127;28;8822;-72
2024/03/18 21:06:20;;;;;;;;;57.00;47.00;;;;;;;;4990275;28;11112;-75
2024/03/18 21:08:45;;;;;;;;;51.25;42.00;;;;;;;;5038869;28;8921;-75
2024/03/18 21:11:10;;;;;;;;;58.33;47.00;;;;;;;;5032298;28;11545;-72
2024/03/18 21:13:36;;;;;;;;;55.33;43.33;;;;;;;;5032711;28;8927;-74
2024/03/18 21:16:03;;;;;;;;;56.67;46.33;;;;;;;;5032665;28;8807;-75
2024/03/18 21:18:28;;;;;;;;;55.00;47.00;;;;;;;;4993633;28;11328;-75
2024/03/18 21:20:54;;;;;;;;;56.67;46.67;;;;;;;;5027594;28;11794;-71
2024/03/18 21:23:19;;;;;;;;;51.00;41.33;;;;;;;;5068025;28;8832;-73
2024/03/18 21:25:44;;;;;;;;;57.67;46.00;;;;;;;;5051899;28;8796;-72
2024/03/18 21:28:10;;;;;;;;;50.33;43.67;;;;;;;;5052009;28;8839;-71
2024/03/18 21:30:35;;;;;;;;;56.00;46.33;;;;;;;;5033258;28;8804;-71
2024/03/18 21:33:00;;;;;;;;;57.00;48.00;;;;;;;;5051319;28;8784;-72
